Time;durP1;ratioP1;P1;durP2;ratioP2;P2;SDS_P1;SDS_P2;PMS_P1;PMS_P2;Temp;Humidity;BMP_temperature;BMP_pressure;BME280_temperature;BME280_humidity;BME280_pressure;Samples;Min_cycle;Max_cycle;Signal;HPM_P1;HPM_P2
2023/02/10 00:01:48;;;;;;;10.60;9.38;;;-1.20;99.90;;;;;;5030959;28;20231;-72
2023/02/10 00:04:15;;;;;;;9.98;8.90;;;-1.20;99.90;;;;;;5024104;28;20201;-73
2023/02/10 00:06:42;;;;;;;10.30;9.30;;;-1.30;99.90;;;;;;5025383;28;20308;-72
2023/02/10 00:09:14;;;;;;;10.02;9.10;;;-1.20;99.90;;;;;;5023674;28;20298;-73
2023/02/10 00:11:59;;;;;;;9.80;8.70;;;-1.20;99.90;;;;;;5024672;28;20199;-72
2023/02/10 00:14:28;;;;;;;9.85;8.88;;;-1.20;99.90;;;;;;5024959;28;20781;-73
2023/02/10 00:16:56;;;;;;;9.95;8.95;;;-1.20;99.90;;;;;;5025598;28;20830;-73
2023/02/10 00:19:25;;;;;;;10.25;9.13;;;-1.20;99.90;;;;;;5025336;28;20295;-72
2023/02/10 00:21:52;;;;;;;9.75;8.85;;;-1.30;99.90;;;;;;5026075;28;21500;-72
2023/02/10 00:24:22;;;;;;;9.02;8.23;;;-1.30;99.90;;;;;;5025080;28;20297;-72
2023/02/10 00:26:49;;;;;;;8.88;7.97;;;-1.30;99.90;;;;;;5025685;28;20279;-71
2023/02/10 00:29:16;;;;;;;9.80;8.88;;;-1.30;99.90;;;;;;5032269;28;20287;-73
2023/02/10 00:31:44;;;;;;;11.27;10.20;;;-1.30;99.90;;;;;;5027998;28;20230;-72
2023/02/10 00:34:12;;;;;;;8.93;8.05;;;-1.30;99.90;;;;;;5031724;28;20232;-73
2023/02/10 00:36:39;;;;;;;9.73;8.73;;;-1.30;99.90;;;;;;5031475;28;20719;-73
2023/02/10 00:39:06;;;;;;;9.65;8.75;;;-1.30;99.90;;;;;;5018585;28;20564;-73
2023/02/10 00:41:36;;;;;;;9.82;8.93;;;-1.40;99.90;;;;;;5029380;28;20274;-72
2023/02/10 00:44:03;;;;;;;9.55;8.65;;;-1.50;99.90;;;;;;5029859;28;20203;-72
2023/02/10 00:46:30;;;;;;;9.63;8.63;;;-1.50;99.90;;;;;;5032527;28;20756;-71
2023/02/10 00:48:58;;;;;;;9.82;8.85;;;-1.60;99.90;;;;;;5029285;28;20277;-73
2023/02/10 00:51:25;;;;;;;9.02;8.15;;;-1.70;99.90;;;;;;5029648;28;20254;-72
2023/02/10 00:53:52;;;;;;;8.50;7.72;;;-1.70;99.90;;;;;;5033396;28;20238;-72
2023/02/10 00:56:20;;;;;;;9.77;8.90;;;-1.70;99.90;;;;;;5030530;28;20306;-72
2023/02/10 00:58:49;;;;;;;8.70;7.80;;;-1.70;99.90;;;;;;5032129;28;20202;-71
2023/02/10 01:01:16;;;;;;;9.63;8.73;;;-1.80;99.90;;;;;;5036049;28;20306;-71
2023/02/10 01:03:43;;;;;;;10.15;9.25;;;-1.80;99.90;;;;;;5033043;28;20342;-71
2023/02/10 01:06:13;;;;;;;9.25;8.43;;;-1.80;99.90;;;;;;5025270;28;20764;-72
2023/02/10 01:08:40;;;;;;;9.50;8.70;;;-1.70;99.90;;;;;;5024899;28;20262;-72
2023/02/10 01:11:10;;;;;;;9.35;8.45;;;-1.70;99.90;;;;;;5026948;28;20745;-72
2023/02/10 01:13:38;;;;;;;9.15;8.25;;;-1.70;99.90;;;;;;5026717;28;20288;-71
2023/02/10 01:16:10;;;;;;;8.15;7.45;;;-1.70;99.90;;;;;;5032112;28;20319;-72
2023/02/10 01:18:37;;;;;;;9.60;8.70;;;-1.70;99.90;;;;;;5027884;28;20258;-72
2023/02/10 01:21:07;;;;;;;8.63;7.80;;;-1.80;99.90;;;;;;5031390;28;20310;-72
2023/02/10 01:23:34;;;;;;;10.00;9.02;;;-1.80;99.90;;;;;;5031756;28;20227;-72
2023/02/10 01:26:02;;;;;;;8.85;8.05;;;-1.80;99.90;;;;;;5030375;28;20656;-72
2023/02/10 01:28:29;;;;;;;9.35;8.45;;;-1.80;99.90;;;;;;5033953;28;20799;-72
2023/02/10 01:30:56;;;;;;;11.18;9.52;;;-1.80;99.90;;;;;;5012724;28;20227;-70
2023/02/10 01:33:25;;;;;;;9.68;8.77;;;-1.80;99.90;;;;;;5028465;28;20282;-71
2023/02/10 01:35:52;;;;;;;8.85;8.05;;;-1.80;99.90;;;;;;5031192;28;20297;-71
2023/02/10 01:38:19;;;;;;;9.68;8.77;;;-1.90;99.90;;;;;;5031905;28;20200;-72
2023/02/10 01:40:49;;;;;;;9.88;8.88;;;-1.90;99.90;;;;;;5032385;28;20306;-71
2023/02/10 01:43:18;;;;;;;9.52;8.70;;;-1.90;99.90;;;;;;5035957;28;20195;-71
2023/02/10 01:45:45;;;;;;;8.82;8.02;;;-1.90;99.90;;;;;;5030136;28;20247;-73
2023/02/10 01:48:13;;;;;;;9.82;8.82;;;-1.90;99.90;;;;;;5032692;28;20204;-71
2023/02/10 01:50:48;;;;;;;8.68;7.88;;;-1.90;99.90;;;;;;5028884;28;20807;-71
2023/02/10 01:53:16;;;;;;;9.05;8.25;;;-1.90;99.90;;;;;;5029040;28;20282;-71
2023/02/10 01:55:48;;;;;;;8.95;8.20;;;-2.00;99.90;;;;;;5027133;28;20780;-71
2023/02/10 01:58:19;;;;;;;9.45;8.55;;;-2.00;99.90;;;;;;5031611;28;20286;-71
2023/02/10 02:00:46;;;;;;;9.23;8.32;;;-2.00;99.90;;;;;;5030193;28;20306;-71
2023/02/10 02:03:14;;;;;;;9.57;8.57;;;-1.90;99.90;;;;;;5033564;28;20318;-71
2023/02/10 02:05:44;;;;;;;8.82;8.00;;;-2.00;99.90;;;;;;5026238;28;20870;-72
2023/02/10 02:08:14;;;;;;;9.65;8.75;;;-2.10;99.90;;;;;;5031353;28;20294;-72
2023/02/10 02:10:53;;;;;;;8.75;7.95;;;-2.10;99.90;;;;;;5030273;28;20315;-72
2023/02/10 02:13:29;;;;;;;8.75;7.95;;;-2.10;99.90;;;;;;5035535;28;20205;-72
2023/02/10 02:16:02;;;;;;;8.50;7.72;;;-2.20;99.90;;;;;;5022599;28;20305;-72
2023/02/10 02:18:37;;;;;;;9.52;8.73;;;-2.20;99.90;;;;;;5027048;28;20212;-72
2023/02/10 02:21:43;;;;;;;9.00;8.20;;;-2.20;99.90;;;;;;5029528;28;20310;-72
2023/02/10 02:24:33;;;;;;;8.55;7.75;;;-2.20;99.90;;;;;;5025254;28;20290;-73
2023/02/10 02:27:34;;;;;;;8.20;7.50;;;-2.20;99.90;;;;;;5029581;28;20223;-72
2023/02/10 02:30:54;;;;;;;9.35;8.45;;;-2.20;99.90;;;;;;5028807;28;20239;-72
2023/02/10 02:33:24;;;;;;;9.40;8.60;;;-2.20;99.90;;;;;;5035955;28;20711;-72
2023/02/10 02:35:58;;;;;;;7.82;7.20;;;-2.30;99.90;;;;;;5030993;28;20455;-72
2023/02/10 02:38:25;;;;;;;8.10;7.40;;;-2.30;99.90;;;;;;5030398;28;20238;-72
2023/02/10 02:40:53;;;;;;;8.95;8.15;;;-2.30;99.90;;;;;;5029236;28;20215;-72
2023/02/10 02:43:20;;;;;;;9.43;8.57;;;-2.40;99.90;;;;;;5034520;28;20636;-71
2023/02/10 02:45:56;;;;;;;10.05;8.50;;;-2.40;99.90;;;;;;5023195;28;20764;-72
2023/02/10 02:48:35;;;;;;;8.32;7.47;;;-2.30;99.90;;;;;;5035650;28;20290;-72
2023/02/10 02:51:10;;;;;;;8.57;7.78;;;-2.30;99.90;;;;;;5029287;28;20319;-71
2023/02/10 02:53:43;;;;;;;8.50;7.70;;;-2.40;99.90;;;;;;5024661;28;20278;-71
2023/02/10 02:56:21;;;;;;;8.23;7.43;;;-2.40;99.90;;;;;;5032446;28;20221;-71
2023/02/10 02:58:54;;;;;;;7.32;6.63;;;-2.40;99.90;;;;;;5028625;28;20223;-72
2023/02/10 03:01:26;;;;;;;8.90;8.00;;;-2.40;99.90;;;;;;5030188;28;20220;-72
2023/02/10 03:03:57;;;;;;;7.88;7.18;;;-2.40;99.90;;;;;;5033079;28;20331;-72
2023/02/10 03:06:25;;;;;;;8.35;7.65;;;-2.30;99.90;;;;;;5033399;28;20660;-71
2023/02/10 03:08:52;;;;;;;9.68;8.68;;;-2.30;99.90;;;;;;5034087;28;20242;-71
2023/02/10 03:11:19;;;;;;;9.02;8.32;;;-2.30;99.90;;;;;;5027751;28;20306;-71
2023/02/10 03:13:46;;;;;;;8.60;7.80;;;-2.30;99.90;;;;;;5033054;28;20228;-72
2023/02/10 03:16:13;;;;;;;9.25;8.45;;;-2.30;99.90;;;;;;5033182;28;20287;-72
2023/02/10 03:18:40;;;;;;;7.97;7.22;;;-2.30;99.90;;;;;;5043103;28;20245;-72
2023/02/10 03:21:09;;;;;;;9.70;8.77;;;-2.30;99.90;;;;;;5041143;28;20230;-70
2023/02/10 03:23:36;;;;;;;9.32;8.43;;;-2.30;99.90;;;;;;5031637;28;20220;-72
2023/02/10 03:26:03;;;;;;;8.70;8.00;;;-2.40;99.90;;;;;;5025072;28;20654;-71
2023/02/10 03:28:30;;;;;;;8.95;8.10;;;-2.40;99.90;;;;;;5031040;28;20326;-71
2023/02/10 03:30:57;;;;;;;9.02;8.15;;;-2.40;99.90;;;;;;5027668;28;20306;-72
2023/02/10 03:33:24;;;;;;;8.15;7.43;;;-2.40;99.90;;;;;;5027693;28;20234;-72
2023/02/10 03:35:52;;;;;;;8.25;7.50;;;-2.50;99.90;;;;;;5031847;28;20322;-72
2023/02/10 03:38:20;;;;;;;8.45;7.75;;;-2.40;99.90;;;;;;5028659;28;20283;-72
2023/02/10 03:40:51;;;;;;;8.93;8.15;;;-2.40;99.90;;;;;;5026965;28;20294;-71
2023/02/10 03:43:18;;;;;;;9.02;8.23;;;-2.40;99.90;;;;;;5033754;28;20192;-72
2023/02/10 03:45:45;;;;;;;8.95;8.15;;;-2.50;99.90;;;;;;5030342;28;20334;-72
2023/02/10 03:48:12;;;;;;;8.43;7.68;;;-2.60;99.90;;;;;;5027171;28;20290;-71
2023/02/10 03:50:40;;;;;;;8.50;7.40;;;-2.60;99.90;;;;;;5032956;28;20298;-71
2023/02/10 03:53:07;;;;;;;8.73;7.93;;;-2.60;99.90;;;;;;5030792;28;20242;-71
2023/02/10 03:55:36;;;;;;;9.43;8.52;;;-2.60;99.90;;;;;;5025924;28;20246;-70
2023/02/10 03:58:03;;;;;;;8.35;7.10;;;-2.60;99.90;;;;;;5030215;28;20219;-71
2023/02/10 04:00:31;;;;;;;10.57;9.57;;;-2.60;99.90;;;;;;5028769;28;20230;-71
2023/02/10 04:02:58;;;;;;;9.52;8.73;;;-2.60;99.90;;;;;;5031181;28;20196;-71
2023/02/10 04:05:25;;;;;;;8.63;7.90;;;-2.60;99.90;;;;;;5032432;28;20247;-72
2023/02/10 04:07:52;;;;;;;9.55;8.65;;;-2.50;99.90;;;;;;5037791;28;20290;-72
2023/02/10 04:10:20;;;;;;;8.48;7.82;;;-2.50;99.90;;;;;;5033000;28;20258;-71
2023/02/10 04:12:48;;;;;;;7.90;7.20;;;-2.50;99.90;;;;;;5035986;28;20290;-71
2023/02/10 04:15:16;;;;;;;8.95;8.07;;;-2.50;99.90;;;;;;5030594;28;20219;-71
2023/02/10 04:17:43;;;;;;;8.48;7.78;;;-2.50;99.90;;;;;;5033534;28;20315;-71
2023/02/10 04:20:10;;;;;;;9.32;8.50;;;-2.50;99.90;;;;;;5031876;28;20714;-71
2023/02/10 04:22:37;;;;;;;8.50;7.80;;;-2.50;99.90;;;;;;5038130;28;20202;-70
2023/02/10 04:25:05;;;;;;;8.15;7.45;;;-2.60;99.90;;;;;;5025990;28;20315;-71
2023/02/10 04:27:33;;;;;;;8.10;7.40;;;-2.50;99.90;;;;;;5034344;28;20278;-71
2023/02/10 04:30:01;;;;;;;8.60;7.68;;;-2.50;99.90;;;;;;5033388;28;20303;-70
2023/02/10 04:32:28;;;;;;;9.45;8.48;;;-2.50;99.90;;;;;;5036269;28;20235;-71
2023/02/10 04:34:55;;;;;;;8.25;7.55;;;-2.60;99.90;;;;;;5035733;28;20306;-70
2023/02/10 04:37:22;;;;;;;9.30;8.50;;;-2.60;99.90;;;;;;5034242;28;20768;-71
2023/02/10 04:39:49;;;;;;;9.02;8.13;;;-2.60;99.90;;;;;;5034491;28;20306;-71
2023/02/10 04:42:17;;;;;;;8.68;7.93;;;-2.60;99.90;;;;;;5038826;28;20741;-71
2023/02/10 04:44:44;;;;;;;8.45;7.75;;;-2.70;99.90;;;;;;5030891;28;20310;-71
2023/02/10 04:47:12;;;;;;;8.10;7.30;;;-2.70;99.90;;;;;;5031054;28;20195;-70
2023/02/10 04:49:39;;;;;;;8.52;7.78;;;-2.70;99.90;;;;;;5031923;28;20235;-70
2023/02/10 04:52:06;;;;;;;8.95;8.15;;;-2.70;99.90;;;;;;5030780;28;20662;-71
2023/02/10 04:54:33;;;;;;;9.43;8.52;;;-2.70;99.90;;;;;;5026988;28;21097;-71
2023/02/10 04:57:00;;;;;;;9.07;8.38;;;-2.70;99.90;;;;;;5033378;28;21353;-71
2023/02/10 04:59:27;;;;;;;8.95;8.18;;;-2.70;99.90;;;;;;5033789;28;20283;-72
2023/02/10 05:01:54;;;;;;;8.85;8.10;;;-2.70;99.90;;;;;;5035684;28;20202;-71
2023/02/10 05:04:22;;;;;;;9.88;8.52;;;-2.70;99.90;;;;;;5031272;28;20215;-72
2023/02/10 05:06:50;;;;;;;7.60;7.00;;;-2.70;99.90;;;;;;5030061;28;20290;-71
2023/02/10 05:09:17;;;;;;;9.05;8.25;;;-2.60;99.90;;;;;;5032311;28;20680;-72
2023/02/10 05:11:44;;;;;;;8.25;7.65;;;-2.60;99.90;;;;;;5031584;28;20234;-71
2023/02/10 05:14:11;;;;;;;8.63;7.82;;;-2.60;99.90;;;;;;5030550;28;20238;-72
2023/02/10 05:16:38;;;;;;;8.73;7.97;;;-2.70;99.90;;;;;;5034622;28;20744;-72
2023/02/10 05:19:05;;;;;;;9.23;8.43;;;-2.70;99.90;;;;;;5035839;28;20211;-71
2023/02/10 05:21:34;;;;;;;10.18;9.27;;;-2.70;99.90;;;;;;5036163;28;20305;-72
2023/02/10 05:24:01;;;;;;;9.77;8.88;;;-2.80;99.90;;;;;;5027732;28;20204;-72
2023/02/10 05:26:28;;;;;;;9.20;8.35;;;-2.80;99.90;;;;;;5034748;28;20250;-70
2023/02/10 05:28:55;;;;;;;9.90;9.05;;;-2.90;99.90;;;;;;5034564;28;20227;-71
2023/02/10 05:31:22;;;;;;;7.95;7.25;;;-2.90;99.90;;;;;;5030705;28;20791;-70
2023/02/10 05:33:49;;;;;;;8.57;7.78;;;-2.90;99.90;;;;;;5031462;28;20334;-70
2023/02/10 05:36:16;;;;;;;8.25;7.55;;;-2.90;99.90;;;;;;5036808;28;20247;-70
2023/02/10 05:39:22;;;;;;;8.85;8.15;;;-2.90;99.90;;;;;;5040923;28;20290;-71
2023/02/10 05:41:32;;;;;;;8.93;8.10;;;-2.90;99.90;;;;;;5032203;28;20216;-71
2023/02/10 05:43:59;;;;;;;8.20;7.50;;;-3.00;99.90;;;;;;5036685;28;20223;-70
2023/02/10 05:46:26;;;;;;;8.50;7.70;;;-3.00;99.90;;;;;;5032714;28;20238;-70
2023/02/10 05:48:53;;;;;;;8.25;7.55;;;-3.00;99.90;;;;;;5033737;28;20282;-71
2023/02/10 05:51:20;;;;;;;8.98;8.18;;;-3.00;99.90;;;;;;5030625;28;20303;-71
2023/02/10 05:53:49;;;;;;;8.25;7.55;;;-3.00;99.90;;;;;;5030620;28;20739;-72
2023/02/10 05:56:15;;;;;;;8.57;7.88;;;-3.00;99.90;;;;;;5029334;28;20298;-70
2023/02/10 05:58:43;;;;;;;8.52;7.72;;;-3.00;99.90;;;;;;5030818;28;20282;-72
2023/02/10 06:01:10;;;;;;;8.60;7.75;;;-3.00;99.90;;;;;;5030885;28;20306;-72
2023/02/10 06:03:37;;;;;;;8.82;8.13;;;-3.00;99.90;;;;;;5035502;28;20283;-71
2023/02/10 06:06:05;;;;;;;8.75;7.88;;;-2.90;99.90;;;;;;5035290;28;20310;-71
2023/02/10 06:08:32;;;;;;;9.27;8.48;;;-2.90;99.90;;;;;;5028513;28;20743;-71
2023/02/10 06:11:01;;;;;;;9.18;8.27;;;-3.00;99.90;;;;;;5032524;28;20559;-71
2023/02/10 06:13:28;;;;;;;9.18;8.38;;;-3.10;99.90;;;;;;5033996;28;20211;-71
2023/02/10 06:15:55;;;;;;;9.38;8.57;;;-3.10;99.90;;;;;;5027621;28;20307;-71
2023/02/10 06:18:22;;;;;;;8.23;7.53;;;-3.10;99.90;;;;;;5034087;28;20242;-72
2023/02/10 06:20:50;;;;;;;8.32;7.63;;;-3.10;99.90;;;;;;5031419;28;20307;-71
2023/02/10 06:23:19;;;;;;;8.90;8.13;;;-3.10;99.90;;;;;;5036434;28;20242;-71
2023/02/10 06:25:46;;;;;;;8.60;7.88;;;-3.00;99.90;;;;;;5030049;28;20219;-71
2023/02/10 06:28:15;;;;;;;8.15;7.35;;;-3.00;99.90;;;;;;5029552;28;20667;-71
2023/02/10 06:30:42;;;;;;;8.60;7.72;;;-3.00;99.90;;;;;;5031069;28;20215;-71
2023/02/10 06:33:09;;;;;;;8.57;7.88;;;-3.00;99.90;;;;;;5029748;28;20192;-71
2023/02/10 06:35:36;;;;;;;8.63;7.85;;;-3.00;99.90;;;;;;5033204;28;20768;-71
2023/02/10 06:38:03;;;;;;;8.60;7.80;;;-3.00;99.90;;;;;;5033104;28;20354;-71
2023/02/10 06:40:30;;;;;;;8.35;7.65;;;-3.00;99.90;;;;;;5032389;28;20771;-71
2023/02/10 06:42:57;;;;;;;8.20;7.47;;;-3.00;99.90;;;;;;5031347;28;20282;-72
2023/02/10 06:45:25;;;;;;;8.85;8.05;;;-3.00;99.90;;;;;;5030863;28;20595;-72
2023/02/10 06:47:52;;;;;;;8.38;7.57;;;-3.00;99.90;;;;;;5026506;28;20299;-70
2023/02/10 06:50:20;;;;;;;9.48;8.45;;;-3.00;99.90;;;;;;5031595;28;20309;-71
2023/02/10 06:52:48;;;;;;;7.47;6.78;;;-2.90;99.90;;;;;;5029328;28;20278;-71
2023/02/10 06:55:15;;;;;;;8.10;7.32;;;-3.00;99.90;;;;;;5028770;28;20726;-71
2023/02/10 06:57:42;;;;;;;8.65;7.75;;;-3.00;99.90;;;;;;5029441;28;20306;-71
2023/02/10 07:00:12;;;;;;;8.57;7.75;;;-2.90;99.90;;;;;;5025178;28;20906;-71
2023/02/10 07:02:41;;;;;;;9.10;8.30;;;-2.90;99.90;;;;;;5028476;28;20761;-71
2023/02/10 07:05:11;;;;;;;8.32;7.63;;;-2.90;99.90;;;;;;5029744;28;20242;-71
2023/02/10 07:07:38;;;;;;;8.40;7.35;;;-2.90;99.90;;;;;;5031493;28;20202;-72
2023/02/10 07:10:06;;;;;;;8.25;7.50;;;-2.90;99.90;;;;;;5032495;28;20311;-72
2023/02/10 07:12:33;;;;;;;7.85;7.18;;;-2.90;99.90;;;;;;5035083;28;20286;-72
2023/02/10 07:15:00;;;;;;;8.63;7.82;;;-2.80;99.90;;;;;;5025332;28;20298;-72
2023/02/10 07:17:27;;;;;;;7.43;6.82;;;-2.80;99.90;;;;;;5032814;28;20322;-72
2023/02/10 07:19:55;;;;;;;8.35;7.63;;;-2.80;99.90;;;;;;5030703;28;20219;-72
2023/02/10 07:22:22;;;;;;;8.25;7.55;;;-2.80;99.90;;;;;;5035341;28;20227;-72
2023/02/10 07:24:49;;;;;;;8.10;7.40;;;-2.80;99.90;;;;;;5030780;28;20234;-72
2023/02/10 07:27:16;;;;;;;9.15;8.25;;;-2.80;99.90;;;;;;5031883;28;20344;-72
2023/02/10 07:29:44;;;;;;;8.25;7.50;;;-2.80;99.90;;;;;;5036023;28;20223;-72
2023/02/10 07:32:10;;;;;;;9.27;8.45;;;-2.70;99.90;;;;;;5029852;28;20286;-72
2023/02/10 07:34:40;;;;;;;8.98;8.18;;;-2.60;99.90;;;;;;5025988;28;20257;-72
2023/02/10 07:37:09;;;;;;;9.88;8.88;;;-1.80;99.90;;;;;;5021058;28;21130;-72
2023/02/10 07:39:36;;;;;;;10.10;8.48;;;-0.60;99.90;;;;;;5020763;28;20226;-72
2023/02/10 07:42:04;;;;;;;8.65;7.85;;;0.50;99.90;;;;;;5027044;28;20200;-72
2023/02/10 07:44:31;;;;;;;9.60;8.70;;;1.40;99.90;;;;;;5031813;28;20254;-71
2023/02/10 07:46:58;;;;;;;9.70;8.70;;;2.10;99.90;;;;;;5030646;28;20699;-72
2023/02/10 07:49:26;;;;;;;8.95;8.15;;;2.70;99.90;;;;;;5031080;28;20297;-73
2023/02/10 07:51:53;;;;;;;9.27;8.38;;;3.20;99.90;;;;;;5032150;28;20230;-72
2023/02/10 07:54:22;;;;;;;10.05;8.95;;;3.50;99.90;;;;;;5031833;28;20281;-71
2023/02/10 07:56:49;;;;;;;8.63;7.93;;;3.80;99.90;;;;;;5031179;28;20582;-73
2023/02/10 07:59:16;;;;;;;10.13;9.05;;;4.20;99.50;;;;;;5034565;28;20296;-73
2023/02/10 08:01:45;;;;;;;8.73;7.82;;;4.80;98.90;;;;;;5029151;28;20296;-72
2023/02/10 08:04:12;;;;;;;9.35;8.30;;;5.30;98.00;;;;;;5033530;28;20569;-73
2023/02/10 08:06:40;;;;;;;11.13;9.80;;;5.80;97.10;;;;;;5038577;28;20230;-73
2023/02/10 08:09:07;;;;;;;12.90;11.10;;;6.10;96.50;;;;;;5035800;28;20286;-73
2023/02/10 08:11:36;;;;;;;13.23;9.95;;;6.00;95.80;;;;;;5033453;28;20299;-73
2023/02/10 08:14:04;;;;;;;9.85;8.85;;;6.00;96.30;;;;;;5030302;28;20241;-72
2023/02/10 08:16:31;;;;;;;10.40;8.80;;;6.10;94.90;;;;;;5026938;28;20223;-72
2023/02/10 08:18:58;;;;;;;12.23;9.40;;;6.10;94.90;;;;;;5033655;28;20355;-72
2023/02/10 08:21:26;;;;;;;10.75;9.13;;;6.20;95.10;;;;;;5031038;28;20325;-72
2023/02/10 08:23:54;;;;;;;9.75;8.75;;;6.50;95.10;;;;;;5028738;28;20214;-72
2023/02/10 08:26:23;;;;;;;8.75;7.80;;;6.80;94.30;;;;;;5032092;28;20259;-72
2023/02/10 08:28:54;;;;;;;8.40;7.57;;;7.00;93.20;;;;;;5035232;28;20195;-71
2023/02/10 08:31:21;;;;;;;9.25;8.38;;;6.90;93.30;;;;;;5029832;28;20270;-73
2023/02/10 08:33:49;;;;;;;9.35;8.38;;;7.00;92.90;;;;;;5032076;28;20282;-73
2023/02/10 08:36:19;;;;;;;9.40;8.50;;;6.90;92.10;;;;;;5033830;28;20547;-73
2023/02/10 08:38:47;;;;;;;10.55;8.93;;;6.90;92.70;;;;;;5028383;28;20298;-72
2023/02/10 08:41:14;;;;;;;9.13;8.15;;;7.00;91.90;;;;;;5030782;28;20294;-72
2023/02/10 08:43:42;;;;;;;8.52;7.57;;;7.30;92.20;;;;;;5032839;28;20290;-73
2023/02/10 08:46:11;;;;;;;9.10;8.20;;;7.60;92.70;;;;;;5032949;28;20767;-72
2023/02/10 08:48:38;;;;;;;9.00;8.10;;;7.90;91.70;;;;;;5028139;28;20212;-72
2023/02/10 08:51:07;;;;;;;9.27;7.57;;;7.90;91.20;;;;;;5029593;28;20235;-73
2023/02/10 08:53:35;;;;;;;8.68;7.88;;;8.10;90.70;;;;;;5032008;28;20608;-72
2023/02/10 08:56:05;;;;;;;10.60;8.85;;;8.20;90.00;;;;;;5026746;28;20277;-73
2023/02/10 08:58:32;;;;;;;8.93;8.02;;;8.10;90.20;;;;;;5030063;28;20297;-71
2023/02/10 09:00:59;;;;;;;10.10;7.38;;;8.20;90.30;;;;;;5031789;28;20310;-72
2023/02/10 09:03:28;;;;;;;8.90;7.97;;;8.40;90.40;;;;;;5021320;28;20223;-73
2023/02/10 09:05:55;;;;;;;11.00;7.88;;;8.60;89.70;;;;;;5028156;28;20322;-72
2023/02/10 09:08:22;;;;;;;10.18;7.40;;;8.40;88.70;;;;;;5031717;28;20282;-73
2023/02/10 09:10:50;;;;;;;9.23;8.35;;;8.20;90.10;;;;;;5028720;28;22223;-73
2023/02/10 09:13:17;;;;;;;10.63;8.20;;;8.20;89.40;;;;;;5034500;28;20223;-73
2023/02/10 09:15:44;;;;;;;9.10;7.93;;;8.30;90.20;;;;;;5029442;28;20641;-73
2023/02/10 09:18:12;;;;;;;8.40;7.60;;;8.40;90.00;;;;;;5029365;28;20306;-73
2023/02/10 09:20:40;;;;;;;8.57;7.72;;;8.40;90.20;;;;;;5032997;28;20738;-73
2023/02/10 09:23:07;;;;;;;8.95;7.10;;;8.50;90.40;;;;;;5033539;28;20692;-73
2023/02/10 09:25:35;;;;;;;9.07;7.60;;;8.40;90.50;;;;;;5032790;28;20303;-74
2023/02/10 09:28:02;;;;;;;9.02;8.13;;;8.10;90.70;;;;;;5027774;28;20237;-74
2023/02/10 09:30:29;;;;;;;9.18;8.00;;;8.00;90.80;;;;;;5028970;28;20307;-74
2023/02/10 09:32:56;;;;;;;9.68;7.63;;;8.20;90.50;;;;;;5033714;28;20286;-74
2023/02/10 09:35:23;;;;;;;8.85;7.95;;;8.50;90.80;;;;;;5028268;28;20305;-74
2023/02/10 09:37:53;;;;;;;8.45;7.50;;;8.90;90.10;;;;;;5028882;28;20265;-73
2023/02/10 09:40:25;;;;;;;8.80;8.00;;;9.30;89.00;;;;;;5022881;28;20227;-74
2023/02/10 09:43:15;;;;;;;8.13;7.32;;;9.50;88.60;;;;;;5028889;28;20285;-74
2023/02/10 09:45:42;;;;;;;7.68;6.88;;;9.70;86.60;;;;;;5027717;28;20247;-74
2023/02/10 09:48:31;;;;;;;8.60;7.32;;;9.50;86.00;;;;;;5035433;28;20271;-74
2023/02/10 09:51:07;;;;;;;7.88;7.13;;;9.40;84.40;;;;;;5031938;28;20700;-73
2023/02/10 09:53:37;;;;;;;9.55;7.72;;;9.20;84.90;;;;;;5031011;28;20282;-74
2023/02/10 09:56:06;;;;;;;7.88;7.07;;;9.20;85.00;;;;;;5029088;28;20306;-74
2023/02/10 09:58:37;;;;;;;8.93;7.20;;;9.10;83.60;;;;;;5034712;28;20307;-74
2023/02/10 10:01:11;;;;;;;7.45;6.55;;;8.80;82.50;;;;;;5029142;28;20746;-74
2023/02/10 10:03:44;;;;;;;7.55;6.72;;;9.00;83.70;;;;;;5023584;28;20196;-74
2023/02/10 10:06:21;;;;;;;8.45;7.65;;;9.30;83.30;;;;;;5033203;28;20354;-73
2023/02/10 10:08:58;;;;;;;8.93;8.02;;;9.30;83.10;;;;;;5035241;28;20227;-72
2023/02/10 10:11:28;;;;;;;8.10;7.20;;;9.10;82.20;;;;;;5031422;28;20735;-72
2023/02/10 10:13:56;;;;;;;7.68;6.90;;;8.90;82.20;;;;;;5024314;28;20291;-74
2023/02/10 10:16:48;;;;;;;7.95;7.07;;;9.20;82.20;;;;;;5024672;28;20223;-75
2023/02/10 10:19:27;;;;;;;8.68;7.78;;;9.40;81.60;;;;;;5026485;28;20216;-73
2023/02/10 10:22:07;;;;;;;7.65;6.93;;;9.30;81.90;;;;;;5029055;28;20282;-72
2023/02/10 10:25:04;;;;;;;9.32;7.18;;;9.60;81.90;;;;;;5030820;28;20267;-74
2023/02/10 10:27:38;;;;;;;8.00;7.20;;;9.80;79.40;;;;;;5024697;28;20230;-73
2023/02/10 10:30:12;;;;;;;7.93;6.70;;;9.70;80.10;;;;;;5026934;28;20251;-73
2023/02/10 10:32:44;;;;;;;11.93;6.38;;;9.60;80.80;;;;;;5025313;28;20202;-73
2023/02/10 10:35:16;;;;;;;9.18;7.35;;;10.00;80.50;;;;;;5025368;28;20258;-73
2023/02/10 10:37:44;;;;;;;7.75;6.95;;;9.80;78.90;;;;;;5035371;28;20667;-73
2023/02/10 10:40:19;;;;;;;8.15;7.10;;;9.80;79.90;;;;;;5028987;28;20302;-73
2023/02/10 10:42:48;;;;;;;10.48;7.38;;;9.60;79.80;;;;;;5022987;28;20257;-73
2023/02/10 10:45:19;;;;;;;8.57;7.22;;;9.70;80.40;;;;;;5024896;28;20251;-72
2023/02/10 10:47:50;;;;;;;8.60;7.65;;;9.60;80.00;;;;;;5032232;28;20227;-74
2023/02/10 10:50:19;;;;;;;8.07;7.35;;;9.60;79.80;;;;;;5022465;28;20258;-75
2023/02/10 10:52:51;;;;;;;8.15;7.15;;;9.30;80.70;;;;;;5021873;28;20279;-74
2023/02/10 10:55:24;;;;;;;7.50;6.47;;;9.50;80.70;;;;;;5020939;28;20325;-75
2023/02/10 10:57:53;;;;;;;9.73;7.10;;;9.60;80.30;;;;;;5028745;28;20280;-75
2023/02/10 11:00:23;;;;;;;7.78;7.07;;;9.30;80.20;;;;;;5022647;28;20242;-74
2023/02/10 11:02:55;;;;;;;8.93;7.30;;;9.30;80.20;;;;;;5012217;28;20692;-74
2023/02/10 11:05:23;;;;;;;7.10;6.35;;;9.30;80.30;;;;;;4997585;28;20234;-74
2023/02/10 11:07:52;;;;;;;11.13;6.90;;;9.50;79.70;;;;;;4999503;28;20749;-71
2023/02/10 11:10:28;;;;;;;9.07;7.15;;;9.60;79.60;;;;;;4998947;28;20281;-74
2023/02/10 11:12:57;;;;;;;9.73;7.82;;;9.70;79.20;;;;;;5001080;28;20205;-74
2023/02/10 11:15:36;;;;;;;7.22;6.53;;;9.70;77.10;;;;;;4999179;28;20234;-74
2023/02/10 11:18:07;;;;;;;8.52;6.63;;;9.60;79.00;;;;;;5006062;28;20200;-74
2023/02/10 11:20:36;;;;;;;7.50;6.80;;;9.70;81.50;;;;;;5022047;28;20215;-74
2023/02/10 11:23:05;;;;;;;7.28;6.57;;;9.90;79.70;;;;;;5017900;28;20294;-73
2023/02/10 11:25:36;;;;;;;7.70;6.80;;;10.20;77.00;;;;;;5019194;28;20315;-74
2023/02/10 11:28:06;;;;;;;8.15;6.95;;;10.10;77.70;;;;;;5021912;28;20223;-75
2023/02/10 11:30:36;;;;;;;7.43;6.65;;;10.00;76.50;;;;;;5019699;28;20247;-74
2023/02/10 11:33:05;;;;;;;7.68;6.97;;;10.20;76.90;;;;;;5022568;28;20267;-74
2023/02/10 11:35:34;;;;;;;7.25;6.55;;;10.00;75.90;;;;;;5023307;28;20302;-73
2023/02/10 11:38:05;;;;;;;7.68;6.88;;;10.10;76.50;;;;;;5018895;28;20207;-74
2023/02/10 11:40:51;;;;;;;8.23;6.95;;;10.20;76.20;;;;;;5018434;28;20310;-74
2023/02/10 11:43:19;;;;;;;7.53;6.47;;;10.30;75.80;;;;;;5021597;28;20204;-75
2023/02/10 11:45:54;;;;;;;7.10;6.40;;;10.50;76.00;;;;;;5027947;28;20314;-74
2023/02/10 11:48:22;;;;;;;10.07;6.75;;;10.70;75.30;;;;;;5017611;28;20278;-74
2023/02/10 11:51:00;;;;;;;14.32;6.90;;;10.40;74.50;;;;;;5020323;28;20320;-74
2023/02/10 11:53:30;;;;;;;7.32;6.60;;;10.10;75.10;;;;;;5020714;28;20272;-72
2023/02/10 11:56:02;;;;;;;7.60;6.63;;;10.00;75.50;;;;;;5024998;28;20315;-75
2023/02/10 11:58:59;;;;;;;8.35;6.78;;;10.00;75.10;;;;;;5025666;28;20767;-76
2023/02/10 12:01:37;;;;;;;7.50;6.70;;;10.20;75.80;;;;;;5028280;28;20236;-73
2023/02/10 12:04:22;;;;;;;7.38;6.65;;;10.30;74.90;;;;;;5025080;28;20262;-74
2023/02/10 12:06:58;;;;;;;8.52;6.78;;;10.30;72.90;;;;;;5022661;28;20659;-75
2023/02/10 12:09:34;;;;;;;8.23;6.43;;;10.20;74.70;;;;;;5023698;28;20278;-74
2023/02/10 12:12:10;;;;;;;6.85;6.18;;;9.80;73.00;;;;;;5025960;28;20227;-73
2023/02/10 12:14:54;;;;;;;6.90;6.28;;;9.60;74.30;;;;;;5023109;28;20711;-73
2023/02/10 12:17:28;;;;;;;7.10;6.40;;;9.60;74.00;;;;;;5028072;28;20224;-72
2023/02/10 12:20:13;;;;;;;7.10;6.40;;;9.30;73.90;;;;;;5028921;28;20258;-74
2023/02/10 12:22:53;;;;;;;8.15;5.63;;;9.40;74.60;;;;;;5028603;28;20287;-74
2023/02/10 12:25:23;;;;;;;8.00;6.13;;;9.70;74.10;;;;;;5027199;28;20717;-74
2023/02/10 12:28:02;;;;;;;7.82;6.60;;;9.70;72.10;;;;;;5025470;28;20282;-74
2023/02/10 12:30:41;;;;;;;6.78;6.18;;;9.70;73.40;;;;;;5026935;28;20242;-73
2023/02/10 12:33:34;;;;;;;6.53;5.93;;;9.80;72.50;;;;;;5028664;28;20210;-74
2023/02/10 12:36:11;;;;;;;6.95;6.35;;;9.80;73.00;;;;;;5029422;28;20302;-74
2023/02/10 12:38:56;;;;;;;6.72;6.13;;;9.80;73.20;;;;;;5025193;28;20373;-74
2023/02/10 12:41:36;;;;;;;6.28;5.68;;;10.00;73.00;;;;;;5032918;28;20219;-74
2023/02/10 12:44:30;;;;;;;5.70;5.20;;;10.30;72.40;;;;;;5033095;28;20291;-74
2023/02/10 12:47:10;;;;;;;6.78;6.07;;;10.40;71.10;;;;;;5026946;28;20310;-73
2023/02/10 12:49:52;;;;;;;6.22;5.63;;;10.20;71.50;;;;;;5033100;28;20330;-73
2023/02/10 12:52:26;;;;;;;6.63;5.95;;;10.10;71.80;;;;;;5031623;28;20282;-74
2023/02/10 12:54:58;;;;;;;7.28;5.47;;;10.20;70.30;;;;;;5030451;28;20662;-74
2023/02/10 12:57:29;;;;;;;6.35;5.60;;;10.20;70.10;;;;;;5028884;28;20283;-75
2023/02/10 13:00:02;;;;;;;6.70;6.10;;;10.00;69.60;;;;;;5031312;28;20295;-74
2023/02/10 13:02:39;;;;;;;6.05;5.45;;;9.90;70.50;;;;;;5031480;28;20235;-74
2023/02/10 13:05:11;;;;;;;5.90;5.40;;;9.50;69.40;;;;;;5030903;28;20298;-74